Главная страница
METAR-TAF:

METAR-TAF

Аэропорты :

Pocono Mountains Municipal Airport

Mount Pocono, Пенсильвания, США

широта: 41-08-20N, долгота: 075-23-46W, высота над уровнем моря: 584 м

Текущие метеонаблюдения

Эта сводка был подготовлена 26 минут назад, в 10:53 UTC
Ветер 4 Узел от северо-западный
Температура 10°C
Влажность 82%
Давление 1016 hPa
Видимость: 16.1 км
ясное небо

METAR: KMPO 241053Z AUTO 31004KT 10SM CLR 10/07 A3000 RMK AO2 SLP158 T01000072

Время: 07:19 (11:19 UTC)


TAF: отсутствует

Метеонаблюдения и прогнозы для более 4000 аэропортов (сводки METAR и TAF).

Имеющиеся станции представлены на карте желтыми и красными точками.

Чтобы увидеть название станции, наведите на нее мышь.

Затем щелкните, чтобы увидеть метеонаблюдения и метеопрогнозы.

Управление картой: чтобы увеличить масштаб, щелкните зеленые кнопки с черным крестиком; чтобы уменьшить масштаб, щелкните зеленую кнопку с тире; для просмотра соседних карт щелкайте зеленые стрелки.


METAR-TAF: